Time;durP1;ratioP1;P1;durP2;ratioP2;P2;SDS_P1;SDS_P2;PMS_P1;PMS_P2;Temp;Humidity;BMP_temperature;BMP_pressure;BME280_temperature;BME280_humidity;BME280_pressure;Samples;Min_cycle;Max_cycle;Signal;HPM_P1;HPM_P2
2022/01/12 00:01:20;;;;;;;6.67;6.07;;;3.70;38.50;;;;;;10432024;28;20224;-74
2022/01/12 00:06:24;;;;;;;8.33;7.53;;;3.60;38.40;;;;;;10442162;28;20312;-74
2022/01/12 00:11:27;;;;;;;9.17;7.97;;;3.60;38.50;;;;;;10416079;28;20287;-74
2022/01/12 00:16:32;;;;;;;11.27;8.20;;;3.50;38.30;;;;;;10435643;28;20229;-74
2022/01/12 00:21:36;;;;;;;7.20;6.40;;;3.50;38.40;;;;;;10443596;28;20658;-74
2022/01/12 00:33:06;;;;;;;9.33;8.33;;;3.50;38.30;;;;;;10439033;28;20254;-74
2022/01/12 00:37:26;;;;;;;6.87;6.17;;;3.30;38.20;;;;;;10430521;28;20703;-74
2022/01/12 00:42:30;;;;;;;9.33;8.17;;;3.30;38.30;;;;;;10426368;28;20240;-74
2022/01/12 00:47:34;;;;;;;8.83;7.40;;;3.30;38.40;;;;;;10435717;28;20228;-74
2022/01/12 00:52:38;;;;;;;8.70;7.80;;;3.20;38.10;;;;;;10425880;28;20316;-74
2022/01/12 00:57:42;;;;;;;8.40;7.57;;;3.20;38.30;;;;;;10426076;28;20245;-74
2022/01/12 01:02:46;;;;;;;9.20;8.27;;;3.10;38.50;;;;;;10431350;28;20229;-74
2022/01/12 01:07:51;;;;;;;11.60;8.23;;;3.10;38.20;;;;;;10435757;28;20315;-74
2022/01/12 01:12:54;;;;;;;10.33;8.20;;;3.00;38.50;;;;;;10429943;28;20742;-74
2022/01/12 01:28:36;;;;;;;11.10;9.20;;;3.10;39.10;;;;;;10427768;28;20233;-74
2022/01/12 01:33:41;;;;;;;9.37;8.37;;;3.00;39.00;;;;;;10428210;28;20225;-74
2022/01/12 01:38:44;;;;;;;10.40;8.43;;;3.00;39.10;;;;;;10435730;28;20231;-74
2022/01/12 01:44:08;;;;;;;10.57;8.73;;;3.00;39.20;;;;;;10436642;28;20303;-74
2022/01/12 01:54:34;;;;;;;10.50;8.90;;;3.00;39.40;;;;;;10436815;28;20324;-74
2022/01/12 01:59:37;;;;;;;9.97;8.93;;;3.00;39.40;;;;;;10423828;28;20221;-74
2022/01/12 02:04:42;;;;;;;10.43;8.80;;;3.00;39.50;;;;;;10423980;28;20225;-74
2022/01/12 02:09:46;;;;;;;9.03;8.13;;;3.00;39.60;;;;;;10437214;28;20905;-74
2022/01/12 02:14:49;;;;;;;8.53;7.23;;;3.10;39.80;;;;;;10427386;28;20264;-74
2022/01/12 02:20:10;;;;;;;10.20;8.27;;;3.10;39.80;;;;;;10428721;28;20223;-74
2022/01/12 02:36:08;;;;;;;10.87;9.50;;;3.20;40.10;;;;;;10425702;28;20232;-75
2022/01/12 02:41:13;;;;;;;9.43;8.47;;;3.20;40.00;;;;;;10424274;28;20681;-74
2022/01/12 02:53:38;;;;;;;10.93;8.73;;;3.20;39.80;;;;;;10427563;28;20738;-74
2022/01/12 02:57:01;;;;;;;10.30;8.77;;;3.20;39.80;;;;;;10418732;28;20224;-74
2022/01/12 03:02:20;;;;;;;12.87;10.57;;;3.20;39.80;;;;;;10424794;28;20236;-74
2022/01/12 03:07:23;;;;;;;12.63;10.57;;;3.20;39.80;;;;;;10427760;28;20240;-74
2022/01/12 03:12:28;;;;;;;11.57;10.03;;;3.20;39.70;;;;;;10428776;28;20229;-74
2022/01/12 03:17:31;;;;;;;14.00;10.73;;;3.20;39.80;;;;;;10444120;28;20224;-74
2022/01/12 03:22:34;;;;;;;13.07;10.93;;;3.20;39.80;;;;;;10437467;28;20237;-74
2022/01/12 03:27:39;;;;;;;11.40;10.13;;;3.20;39.80;;;;;;10441164;28;20226;-74
2022/01/12 03:32:46;;;;;;;11.77;9.63;;;3.10;39.80;;;;;;10428436;28;20228;-74
2022/01/12 03:38:19;;;;;;;11.60;9.70;;;3.10;39.90;;;;;;10431041;28;20283;-74
2022/01/12 03:43:19;;;;;;;11.80;10.57;;;3.10;40.00;;;;;;10435748;28;20236;-74
2022/01/12 03:48:22;;;;;;;12.63;10.37;;;3.10;40.00;;;;;;10436509;28;20232;-74
2022/01/12 03:53:25;;;;;;;12.47;10.50;;;3.10;40.00;;;;;;10432170;28;20609;-74
2022/01/12 03:58:30;;;;;;;12.67;10.27;;;3.00;39.90;;;;;;10432848;28;20225;-74
2022/01/12 04:03:38;;;;;;;12.30;10.67;;;3.20;40.10;;;;;;10425280;28;20256;-74
2022/01/12 04:08:41;;;;;;;12.50;10.57;;;3.00;39.90;;;;;;10425468;28;20225;-74
2022/01/12 04:13:47;;;;;;;12.33;9.67;;;3.00;39.70;;;;;;10433997;28;20892;-74
2022/01/12 04:18:51;;;;;;;11.90;10.63;;;3.00;40.00;;;;;;10431048;28;20243;-74
2022/01/12 04:23:55;;;;;;;11.50;10.17;;;3.00;39.90;;;;;;10422493;28;20225;-74
2022/01/12 04:29:00;;;;;;;12.80;10.97;;;3.00;40.10;;;;;;10423418;28;20225;-74
2022/01/12 04:34:04;;;;;;;12.33;9.87;;;3.10;40.20;;;;;;10431809;28;20221;-74
2022/01/12 04:39:07;;;;;;;11.90;9.73;;;3.20;40.30;;;;;;10436000;28;20235;-74
2022/01/12 04:44:12;;;;;;;12.07;9.80;;;3.10;40.10;;;;;;10438882;28;20229;-74
2022/01/12 04:49:47;;;;;;;13.03;10.73;;;3.20;40.10;;;;;;10423792;28;20625;-74
2022/01/12 04:54:50;;;;;;;12.47;9.93;;;3.00;39.90;;;;;;10434157;28;20779;-74
2022/01/12 05:00:05;;;;;;;12.77;10.47;;;3.20;40.00;;;;;;10426054;28;20336;-74
2022/01/12 05:15:51;;;;;;;13.63;10.97;;;3.00;39.80;;;;;;10433667;28;20221;-74
2022/01/12 05:20:54;;;;;;;12.90;10.53;;;3.00;39.90;;;;;;10434718;28;20225;-74
2022/01/12 05:25:58;;;;;;;13.40;11.20;;;3.00;39.80;;;;;;10421337;28;20229;-74
2022/01/12 05:31:03;;;;;;;12.37;10.27;;;3.00;39.80;;;;;;10427709;28;20229;-74
2022/01/12 05:36:07;;;;;;;14.80;11.23;;;3.00;39.80;;;;;;10421076;28;20213;-74
2022/01/12 05:41:12;;;;;;;15.10;10.97;;;3.00;39.80;;;;;;10421155;28;20731;-74
2022/01/12 05:46:21;;;;;;;14.83;11.70;;;3.00;39.90;;;;;;10418344;28;20705;-74
2022/01/12 05:51:25;;;;;;;15.93;12.17;;;2.90;39.90;;;;;;10415453;28;20230;-74
2022/01/12 05:56:28;;;;;;;16.20;11.57;;;2.90;39.80;;;;;;10426375;28;20229;-73
2022/01/12 06:01:33;;;;;;;13.50;10.93;;;2.90;39.80;;;;;;10430307;28;20225;-73
2022/01/12 06:06:36;;;;;;;12.77;10.73;;;2.90;39.70;;;;;;10422555;28;20313;-73
2022/01/12 06:11:39;;;;;;;12.97;10.70;;;2.90;39.60;;;;;;10429551;28;20229;-72
2022/01/12 06:16:44;;;;;;;12.37;10.67;;;2.90;40.10;;;;;;10431913;28;20228;-73
2022/01/12 06:21:48;;;;;;;13.50;10.50;;;2.80;39.80;;;;;;10434434;28;20225;-72
2022/01/12 06:26:51;;;;;;;12.27;10.47;;;2.80;39.60;;;;;;10442481;28;20228;-72
2022/01/12 06:31:57;;;;;;;12.83;10.23;;;3.00;39.70;;;;;;10438833;28;20225;-72
2022/01/12 06:37:06;;;;;;;12.07;10.77;;;2.80;39.50;;;;;;10448355;28;20253;-72
2022/01/12 06:42:09;;;;;;;11.87;10.00;;;2.70;39.50;;;;;;10433029;28;20248;-72
2022/01/12 06:47:13;;;;;;;11.03;9.67;;;2.70;39.50;;;;;;10441035;28;20589;-72
2022/01/12 06:52:16;;;;;;;14.00;9.97;;;2.70;39.50;;;;;;10439981;28;20232;-73
2022/01/12 06:57:20;;;;;;;12.13;10.30;;;2.60;39.40;;;;;;10435230;28;20225;-73
2022/01/12 07:02:24;;;;;;;11.40;9.77;;;2.60;39.40;;;;;;10436746;28;20721;-72
2022/01/12 07:07:28;;;;;;;11.60;9.70;;;2.60;39.50;;;;;;10433638;28;20604;-72
2022/01/12 07:12:31;;;;;;;11.40;9.73;;;2.50;39.40;;;;;;10433162;28;20236;-73
2022/01/12 07:17:36;;;;;;;11.23;10.03;;;2.50;39.50;;;;;;10438398;28;20226;-73
2022/01/12 07:22:39;;;;;;;12.47;9.90;;;2.50;39.50;;;;;;10433945;28;20232;-72
2022/01/12 07:27:42;;;;;;;10.67;9.17;;;2.50;39.70;;;;;;10435670;28;20229;-72
2022/01/12 07:32:47;;;;;;;12.40;10.10;;;2.40;39.60;;;;;;10434428;28;20916;-72
2022/01/12 07:37:50;;;;;;;11.57;10.10;;;2.50;39.80;;;;;;10422488;28;20228;-73
2022/01/12 07:42:53;;;;;;;12.97;11.57;;;2.60;40.10;;;;;;10437726;28;20225;-72
2022/01/12 07:47:57;;;;;;;14.03;12.13;;;2.40;40.00;;;;;;10435686;28;20233;-72
2022/01/12 07:53:01;;;;;;;12.87;11.27;;;2.50;40.00;;;;;;10431785;28;20217;-72
2022/01/12 07:58:04;;;;;;;12.60;10.33;;;2.50;40.00;;;;;;10429764;28;20228;-73
2022/01/12 08:03:09;;;;;;;12.80;9.37;;;2.50;40.00;;;;;;10434110;28;20225;-72
2022/01/12 08:08:12;;;;;;;10.57;8.77;;;2.60;40.10;;;;;;10428086;28;20279;-72
2022/01/12 08:13:16;;;;;;;9.70;8.70;;;2.40;39.80;;;;;;10426503;28;20228;-72
2022/01/12 08:18:20;;;;;;;12.20;10.73;;;2.30;40.10;;;;;;10433601;28;20221;-73
2022/01/12 08:23:24;;;;;;;13.23;10.23;;;2.20;40.20;;;;;;10429647;28;20233;-73
2022/01/12 08:28:27;;;;;;;11.43;9.73;;;2.20;40.20;;;;;;10426135;28;20237;-73
2022/01/12 08:33:32;;;;;;;13.17;10.90;;;2.20;40.40;;;;;;10431185;28;20752;-73
2022/01/12 08:38:35;;;;;;;11.63;8.97;;;2.10;40.40;;;;;;10425198;28;20239;-73
2022/01/12 08:43:39;;;;;;;13.17;11.10;;;2.10;40.40;;;;;;10425554;28;20233;-73
2022/01/12 08:48:43;;;;;;;14.47;11.17;;;2.10;40.40;;;;;;10420241;28;20221;-74
2022/01/12 08:53:47;;;;;;;14.10;11.30;;;2.10;40.40;;;;;;10418336;28;20256;-73
2022/01/12 08:58:51;;;;;;;14.57;12.03;;;2.00;40.30;;;;;;10416036;28;20235;-74
2022/01/12 09:03:55;;;;;;;12.43;11.10;;;2.00;40.30;;;;;;10426109;28;20221;-74
2022/01/12 09:08:59;;;;;;;15.37;11.77;;;2.00;40.40;;;;;;10427523;28;20596;-73
2022/01/12 09:14:02;;;;;;;16.40;12.67;;;2.00;40.40;;;;;;10431862;28;20595;-74
2022/01/12 09:19:06;;;;;;;14.13;11.47;;;2.00;40.60;;;;;;10426297;28;20218;-73
2022/01/12 09:24:10;;;;;;;14.57;11.83;;;2.00;40.40;;;;;;10424093;23;20726;-69
2022/01/12 09:29:13;;;;;;;14.30;12.37;;;2.00;40.30;;;;;;10456893;28;20236;-69
2022/01/12 09:34:17;;;;;;;16.47;13.30;;;1.90;40.50;;;;;;10441620;28;20243;-69
2022/01/12 09:39:21;;;;;;;16.80;13.53;;;1.80;40.60;;;;;;10422509;28;20225;-69
2022/01/12 09:44:30;;;;;;;17.10;14.60;;;1.80;40.60;;;;;;10421358;28;20241;-70
2022/01/12 09:49:35;;;;;;;18.63;14.50;;;1.80;41.10;;;;;;10429087;28;20224;-70
2022/01/12 09:54:39;;;;;;;17.83;14.30;;;1.80;40.90;;;;;;10434831;28;20233;-70
2022/01/12 09:59:42;;;;;;;16.23;12.63;;;1.90;41.00;;;;;;10439961;28;20224;-69
2022/01/12 10:04:47;;;;;;;16.57;13.37;;;1.90;41.90;;;;;;10435973;28;20668;-68
2022/01/12 10:09:50;;;;;;;14.70;12.73;;;1.90;41.30;;;;;;10434619;28;20248;-68
2022/01/12 10:14:55;;;;;;;14.73;12.37;;;2.00;41.00;;;;;;10429338;28;20217;-68
2022/01/12 10:20:07;;;;;;;16.80;12.87;;;2.00;40.90;;;;;;10429339;28;20317;-68
2022/01/12 10:25:16;;;;;;;14.83;11.90;;;2.00;41.30;;;;;;10434151;28;20244;-69
2022/01/12 10:30:21;;;;;;;15.43;12.77;;;2.10;41.30;;;;;;10427027;28;20217;-69
2022/01/12 10:35:27;;;;;;;17.27;13.17;;;2.20;41.40;;;;;;10434820;28;20240;-68
2022/01/12 10:40:31;;;;;;;17.20;14.33;;;2.20;41.30;;;;;;10432138;28;20224;-68
2022/01/12 10:45:34;;;;;;;20.23;15.87;;;2.30;41.20;;;;;;10430702;28;20697;-68
2022/01/12 10:50:38;;;;;;;17.30;13.30;;;2.30;40.90;;;;;;10430491;28;20233;-68
2022/01/12 10:55:41;;;;;;;13.10;11.33;;;2.30;41.00;;;;;;10426654;28;20236;-69
2022/01/12 11:00:47;;;;;;;15.20;12.60;;;2.30;41.10;;;;;;10429217;28;20229;-69
2022/01/12 11:05:54;;;;;;;15.33;12.73;;;2.40;41.20;;;;;;10430024;28;20221;-69
2022/01/12 11:10:59;;;;;;;18.03;14.57;;;2.50;41.20;;;;;;10426807;28;20217;-70
2022/01/12 11:16:04;;;;;;;16.57;14.03;;;2.50;41.20;;;;;;10425908;28;20230;-69
2022/01/12 11:21:15;;;;;;;14.93;12.70;;;2.60;41.20;;;;;;10424056;28;20221;-70
2022/01/12 11:26:23;;;;;;;15.63;13.97;;;2.60;41.30;;;;;;10425252;28;20308;-69
2022/01/12 11:31:29;;;;;;;14.73;12.90;;;2.70;41.30;;;;;;10423767;28;20256;-69
2022/01/12 11:36:39;;;;;;;13.60;12.17;;;2.70;41.00;;;;;;10427886;28;20225;-69
2022/01/12 11:41:44;;;;;;;15.10;13.10;;;2.80;40.90;;;;;;10425725;28;20593;-69
2022/01/12 11:46:49;;;;;;;18.07;14.13;;;2.80;40.90;;;;;;10428294;28;20326;-69
2022/01/12 11:51:55;;;;;;;14.47;12.83;;;2.80;41.70;;;;;;10426508;28;20363;-69
2022/01/12 11:57:00;;;;;;;13.63;11.40;;;2.80;40.90;;;;;;10429459;28;20231;-69
2022/01/12 12:02:11;;;;;;;14.63;12.57;;;2.80;40.90;;;;;;10424678;28;20217;-69
2022/01/12 12:07:17;;;;;;;14.83;12.93;;;2.70;40.90;;;;;;10431680;28;20315;-69
2022/01/12 12:12:22;;;;;;;13.77;11.80;;;2.70;40.90;;;;;;10429645;28;20230;-69
2022/01/12 12:17:28;;;;;;;13.33;11.10;;;2.60;40.80;;;;;;10427156;28;20256;-68
2022/01/12 12:22:34;;;;;;;12.57;11.17;;;2.50;41.10;;;;;;10427632;28;20728;-68
2022/01/12 12:27:40;;;;;;;10.97;9.87;;;2.40;41.30;;;;;;10423874;28;20228;-69
2022/01/12 12:32:50;;;;;;;11.43;9.50;;;2.50;41.30;;;;;;10436876;28;20588;-69
2022/01/12 12:37:57;;;;;;;11.63;10.43;;;2.50;41.30;;;;;;10427859;28;20257;-69
2022/01/12 12:43:04;;;;;;;33.10;22.00;;;2.50;41.30;;;;;;10423297;28;20229;-70
2022/01/12 12:48:09;;;;;;;16.17;14.47;;;2.60;41.20;;;;;;10424955;28;20238;-69
2022/01/12 12:53:14;;;;;;;12.73;11.43;;;2.60;41.00;;;;;;10425060;28;20236;-69
2022/01/12 12:58:17;;;;;;;12.87;10.37;;;2.60;41.10;;;;;;10428218;28;20715;-69
2022/01/12 13:03:21;;;;;;;14.17;12.30;;;2.60;41.20;;;;;;10424950;28;20314;-69
2022/01/12 13:08:26;;;;;;;14.03;12.37;;;2.70;40.90;;;;;;10425178;28;20236;-69
2022/01/12 13:13:29;;;;;;;13.63;12.33;;;2.60;41.10;;;;;;10421148;28;20630;-69
2022/01/12 13:18:39;;;;;;;12.93;11.10;;;2.60;41.10;;;;;;10423255;28;20225;-69
2022/01/12 13:23:45;;;;;;;12.53;11.23;;;2.60;41.10;;;;;;10411386;28;20224;-70
2022/01/12 13:28:50;;;;;;;17.43;15.63;;;2.60;41.50;;;;;;10413990;28;20244;-69
2022/01/12 13:33:54;;;;;;;15.30;13.70;;;2.60;41.10;;;;;;10418947;28;20335;-68
2022/01/12 13:39:01;;;;;;;14.53;12.90;;;2.50;40.90;;;;;;10414492;28;20517;-69
2022/01/12 13:44:11;;;;;;;13.60;12.10;;;2.50;41.20;;;;;;10413641;28;20217;-68
2022/01/12 13:49:23;;;;;;;15.20;13.57;;;2.50;41.20;;;;;;10412870;28;20234;-67
2022/01/12 13:54:33;;;;;;;13.67;12.20;;;2.50;41.10;;;;;;10415301;28;20243;-66
2022/01/12 13:59:45;;;;;;;14.47;12.30;;;2.60;41.20;;;;;;10411515;28;20220;-67
2022/01/12 14:05:04;;;;;;;13.53;12.13;;;2.60;41.30;;;;;;10416926;28;20213;-66
2022/01/12 14:10:11;;;;;;;15.10;13.50;;;2.60;41.10;;;;;;10417138;28;20219;-66
2022/01/12 14:15:21;;;;;;;15.00;12.77;;;2.60;41.00;;;;;;10416716;28;20248;-66
2022/01/12 14:20:31;;;;;;;17.00;14.10;;;2.60;40.80;;;;;;10418153;28;20225;-67
2022/01/12 14:25:38;;;;;;;14.03;12.00;;;2.60;41.10;;;;;;10421000;28;20431;-66
2022/01/12 14:30:42;;;;;;;13.33;11.93;;;2.70;41.10;;;;;;10415508;28;20238;-67
2022/01/12 14:35:45;;;;;;;17.43;15.63;;;2.70;40.90;;;;;;10426298;28;20221;-66
2022/01/12 14:40:50;;;;;;;16.40;14.70;;;2.70;40.90;;;;;;10425167;28;20590;-67
2022/01/12 14:45:53;;;;;;;17.07;14.50;;;2.70;40.90;;;;;;10425281;28;20220;-67
2022/01/12 14:50:57;;;;;;;15.27;13.40;;;2.60;40.90;;;;;;10430560;28;20248;-67
2022/01/12 14:56:04;;;;;;;15.30;13.70;;;2.70;42.00;;;;;;10427616;28;20249;-66
2022/01/12 15:01:07;;;;;;;15.43;13.60;;;2.70;40.90;;;;;;10419274;28;20224;-67
2022/01/12 15:06:11;;;;;;;16.53;14.83;;;2.70;40.90;;;;;;10425524;28;20296;-66
2022/01/12 15:11:15;;;;;;;22.03;19.53;;;2.60;40.80;;;;;;10418844;28;20242;-68
2022/01/12 15:16:19;;;;;;;15.77;14.17;;;2.50;41.00;;;;;;10418618;28;20231;-69
2022/01/12 15:21:22;;;;;;;16.40;14.70;;;2.50;41.20;;;;;;10417924;28;20690;-68
2022/01/12 15:26:27;;;;;;;18.17;16.23;;;2.50;41.20;;;;;;10422687;28;20706;-68
2022/01/12 15:31:30;;;;;;;16.20;14.47;;;2.60;41.30;;;;;;10421208;28;20225;-68
2022/01/12 15:36:33;;;;;;;19.87;17.77;;;2.60;41.30;;;;;;10421807;28;20261;-69
2022/01/12 15:41:38;;;;;;;21.60;19.27;;;2.60;41.20;;;;;;10422422;28;20732;-69
2022/01/12 15:46:41;;;;;;;20.37;18.23;;;2.70;41.20;;;;;;10417024;28;20598;-70
2022/01/12 15:51:45;;;;;;;19.23;17.27;;;2.60;41.10;;;;;;10422427;28;20233;-69
2022/01/12 15:56:49;;;;;;;19.67;17.53;;;2.60;40.80;;;;;;10420651;28;20331;-69
2022/01/12 16:01:53;;;;;;;23.30;19.90;;;2.60;41.00;;;;;;10422674;28;20747;-70
2022/01/12 16:06:57;;;;;;;21.53;18.53;;;2.60;40.80;;;;;;10426925;28;20225;-70
2022/01/12 16:12:01;;;;;;;29.27;22.13;;;2.60;40.90;;;;;;10422336;28;20238;-70
2022/01/12 16:17:24;;;;;;;25.53;18.50;;;2.60;41.10;;;;;;10424006;28;20229;-72
2022/01/12 16:22:27;;;;;;;18.40;16.23;;;2.50;41.00;;;;;;10421518;28;20604;-66
2022/01/12 16:27:32;;;;;;;19.77;16.73;;;2.50;40.80;;;;;;10421225;28;20224;-68
2022/01/12 16:32:35;;;;;;;17.97;16.07;;;2.50;41.10;;;;;;10413847;28;20443;-69
2022/01/12 16:42:49;;;;;;;16.47;14.43;;;2.60;41.20;;;;;;10367244;28;20225;-68
2022/01/12 16:47:53;;;;;;;16.10;14.37;;;2.60;41.10;;;;;;10355390;28;20226;-68
2022/01/12 16:52:56;;;;;;;16.17;13.80;;;2.70;41.10;;;;;;10336203;28;20728;-68
2022/01/12 16:58:01;;;;;;;14.60;13.13;;;2.60;41.00;;;;;;10337716;28;20597;-67
2022/01/12 17:03:05;;;;;;;16.60;13.53;;;2.50;41.10;;;;;;10333257;28;20215;-68
2022/01/12 17:08:08;;;;;;;17.07;15.27;;;2.50;41.10;;;;;;10340523;28;20245;-67
2022/01/12 17:13:13;;;;;;;16.73;14.27;;;2.50;41.20;;;;;;10340163;28;20261;-69
2022/01/12 17:18:53;;;;;;;17.93;14.80;;;2.60;41.10;;;;;;10335549;28;20222;-69
2022/01/12 17:24:12;;;;;;;12.77;11.47;;;2.60;41.10;;;;;;10335833;28;20222;-69
2022/01/12 17:29:18;;;;;;;16.13;14.00;;;2.60;41.00;;;;;;10296992;28;20234;-69
2022/01/12 17:34:23;;;;;;;21.20;17.40;;;2.70;41.10;;;;;;10297352;28;22925;-69
2022/01/12 17:39:28;;;;;;;16.50;14.73;;;2.70;41.10;;;;;;10293276;28;20233;-69
2022/01/12 17:44:34;;;;;;;13.80;12.30;;;2.80;41.00;;;;;;10295551;28;20223;-70
2022/01/12 17:55:01;;;;;;;17.40;14.33;;;2.90;41.00;;;;;;10301022;28;20614;-69
2022/01/12 18:00:09;;;;;;;33.63;29.07;;;3.00;41.10;;;;;;10340379;28;20218;-69
2022/01/12 18:05:12;;;;;;;19.90;16.87;;;3.10;41.10;;;;;;10340421;28;20229;-69
2022/01/12 18:10:16;;;;;;;18.43;15.60;;;3.20;40.90;;;;;;10338803;28;20233;-69
2022/01/12 18:15:24;;;;;;;17.00;14.77;;;3.10;40.80;;;;;;10345379;28;20225;-69
2022/01/12 18:20:27;;;;;;;16.50;14.80;;;3.10;40.70;;;;;;10346314;28;20222;-69
2022/01/12 18:25:30;;;;;;;17.73;15.77;;;3.10;40.60;;;;;;10342627;28;20230;-69
2022/01/12 18:30:35;;;;;;;20.00;17.23;;;3.10;40.60;;;;;;10342400;28;20239;-69
2022/01/12 18:35:38;;;;;;;27.67;24.77;;;3.10;40.70;;;;;;10344071;28;20227;-69
2022/01/12 18:40:47;;;;;;;21.00;18.67;;;3.10;40.70;;;;;;10342185;28;20229;-69
2022/01/12 18:45:52;;;;;;;28.90;23.50;;;3.20;40.60;;;;;;10345191;28;20229;-69
2022/01/12 18:50:56;;;;;;;23.13;19.40;;;3.10;40.50;;;;;;10344972;28;20236;-69
2022/01/12 18:55:59;;;;;;;25.27;22.77;;;3.10;40.60;;;;;;10345848;28;20597;-72
2022/01/12 19:01:03;;;;;;;20.03;17.93;;;3.10;41.30;;;;;;10342946;28;20399;-72
2022/01/12 19:06:27;;;;;;;22.37;17.67;;;3.10;40.60;;;;;;10349539;28;20222;-72
2022/01/12 19:11:32;;;;;;;18.87;16.80;;;3.00;40.60;;;;;;10340773;28;20258;-72
2022/01/12 19:16:37;;;;;;;19.83;17.03;;;2.90;40.70;;;;;;10343632;28;20234;-72
2022/01/12 19:21:41;;;;;;;16.93;14.30;;;2.90;40.80;;;;;;10317609;28;20238;-71
2022/01/12 19:26:45;;;;;;;18.70;15.57;;;3.00;40.80;;;;;;10342668;28;20305;-71
2022/01/12 19:31:51;;;;;;;21.20;17.13;;;3.10;40.80;;;;;;10338632;28;20234;-71
2022/01/12 19:36:54;;;;;;;19.07;17.10;;;3.20;40.80;;;;;;10338333;28;20233;-71
2022/01/12 19:41:57;;;;;;;20.60;18.07;;;3.20;40.80;;;;;;10338661;28;20237;-71
2022/01/12 19:47:04;;;;;;;21.50;18.80;;;3.20;40.80;;;;;;10335027;28;20223;-71
2022/01/12 19:52:18;;;;;;;20.27;17.93;;;3.20;40.50;;;;;;10339703;28;20687;-71
2022/01/12 19:57:29;;;;;;;21.13;18.70;;;3.20;40.50;;;;;;10340483;28;20238;-71
2022/01/12 20:02:55;;;;;;;21.77;17.80;;;3.10;40.60;;;;;;10341435;28;20230;-71
2022/01/12 20:07:59;;;;;;;18.67;15.80;;;3.10;40.50;;;;;;10340574;28;20230;-71
2022/01/12 20:13:02;;;;;;;17.17;14.40;;;3.20;40.90;;;;;;10334681;28;20241;-71
2022/01/12 20:21:40;;;;;;;19.07;15.60;;;3.30;40.80;;;;;;10338035;28;20238;-70
2022/01/12 20:24:19;;;;;;;19.70;17.60;;;3.20;40.70;;;;;;10329456;28;20246;-71
2022/01/12 20:29:22;;;;;;;16.53;14.50;;;3.30;40.70;;;;;;10322273;28;20580;-71
2022/01/12 20:34:27;;;;;;;19.17;17.17;;;3.30;40.80;;;;;;10326191;28;20237;-68
2022/01/12 20:39:31;;;;;;;22.63;20.23;;;3.30;40.70;;;;;;10327525;28;20226;-68
2022/01/12 20:44:35;;;;;;;21.90;18.27;;;3.30;40.70;;;;;;10331533;28;20229;-68
2022/01/12 20:49:40;;;;;;;18.90;16.20;;;3.30;40.60;;;;;;10331261;28;20277;-68
2022/01/12 20:54:43;;;;;;;20.47;17.40;;;3.30;40.40;;;;;;10333066;28;21105;-68
2022/01/12 20:59:47;;;;;;;18.57;16.50;;;3.30;40.50;;;;;;10334265;28;20249;-68
2022/01/12 21:04:53;;;;;;;22.10;19.03;;;3.30;40.30;;;;;;10330111;28;20741;-68
2022/01/12 21:09:57;;;;;;;21.37;18.27;;;3.30;40.20;;;;;;10332666;28;20605;-68
2022/01/12 21:15:00;;;;;;;16.07;14.03;;;3.30;40.20;;;;;;10335030;28;20734;-68
2022/01/12 21:20:05;;;;;;;17.23;15.40;;;3.30;40.10;;;;;;10291573;28;20220;-68
2022/01/12 21:25:09;;;;;;;18.97;15.47;;;3.20;40.10;;;;;;10290256;28;20322;-68
2022/01/12 21:30:13;;;;;;;19.20;16.13;;;3.20;40.10;;;;;;10284707;28;20234;-69
2022/01/12 21:35:23;;;;;;;16.00;14.10;;;3.20;40.90;;;;;;10281747;28;20231;-68
2022/01/12 21:40:37;;;;;;;19.63;17.23;;;3.30;40.20;;;;;;10279210;28;22974;-68
2022/01/12 21:45:49;;;;;;;18.50;15.47;;;3.20;39.90;;;;;;10286527;28;20741;-68
2022/01/12 21:50:54;;;;;;;20.47;16.53;;;3.10;39.80;;;;;;10290012;28;20215;-68
2022/01/12 21:55:57;;;;;;;17.83;15.67;;;3.00;39.80;;;;;;10298972;28;20711;-68
2022/01/12 22:01:00;;;;;;;16.43;14.23;;;3.00;39.90;;;;;;10303486;28;20250;-68
2022/01/12 22:06:06;;;;;;;18.40;15.63;;;2.90;39.90;;;;;;10306248;28;20219;-68
2022/01/12 22:11:10;;;;;;;17.10;15.27;;;2.90;39.90;;;;;;10305420;28;20318;-68
2022/01/12 22:16:13;;;;;;;19.00;15.63;;;2.90;39.80;;;;;;10308272;28;20227;-68
2022/01/12 22:21:22;;;;;;;16.90;15.07;;;2.90;39.80;;;;;;10304030;28;20611;-68
2022/01/12 22:26:25;;;;;;;15.13;13.50;;;2.90;39.70;;;;;;10307483;28;20230;-68
2022/01/12 22:31:29;;;;;;;15.10;13.27;;;2.80;39.80;;;;;;10309384;28;20246;-68
2022/01/12 22:36:33;;;;;;;16.27;13.87;;;2.70;39.70;;;;;;10299583;28;20227;-68
2022/01/12 22:41:36;;;;;;;15.77;13.70;;;2.70;39.70;;;;;;10306882;28;21179;-68
2022/01/12 22:46:40;;;;;;;16.80;13.90;;;2.70;39.70;;;;;;10306039;28;20445;-68
2022/01/12 22:51:44;;;;;;;19.20;15.43;;;2.70;39.70;;;;;;10298870;28;20588;-68
2022/01/12 22:56:55;;;;;;;12.63;11.10;;;2.60;39.50;;;;;;10305042;28;20699;-68
2022/01/12 23:01:58;;;;;;;15.30;13.67;;;2.50;39.60;;;;;;10303787;28;20251;-68
2022/01/12 23:07:03;;;;;;;14.87;13.27;;;2.60;40.40;;;;;;10306622;28;20222;-68
2022/01/12 23:12:08;;;;;;;16.07;14.20;;;2.50;39.60;;;;;;10302126;28;20575;-68
2022/01/12 23:17:11;;;;;;;16.30;14.00;;;2.40;39.50;;;;;;10305984;28;20227;-68
2022/01/12 23:22:16;;;;;;;14.90;12.67;;;2.40;39.50;;;;;;10304160;28;20231;-68
2022/01/12 23:27:20;;;;;;;16.23;14.37;;;2.40;39.50;;;;;;10304860;28;20238;-68
2022/01/12 23:32:24;;;;;;;16.80;13.40;;;2.30;39.20;;;;;;10308766;28;20925;-68
2022/01/12 23:42:58;;;;;;;13.97;12.47;;;2.30;39.00;;;;;;10298812;28;20227;-68
2022/01/12 23:58:44;;;;;;;14.33;11.80;;;1.90;39.00;;;;;;10304394;28;20238;-68
